Latest Weather Observations for Mount Read

IDT60801

Issued at 4:02 am EST Thursday 7 May 2015 (issued every 30 minutes, with the page automatically refreshed every 10 minutes)

About weather observations | Map of weather stations | Latest weather observations for TAS | Other Formats
Station Details ID: 097085 Name: MOUNT READ Lat: -41.84 Lon: 145.54 Height: 1119.5 m
Data from the previous 72 hours. | See also: Recent months at Mount Read
Date/Time
EST
Temp
°C
App
Temp
°C
Dew
Point
Rel
Hum
%
Delta-T
°C
Wind Press
QNH
hPa
Press
MSL
hPa
Rain
since 9 am
mm
Dir
 
Spd
km/h
Gust
km/h
Spd
kts
Gust
kts
07/04:00am - - - - - N 46 61 25 33 1001.9 1002.7 6.8
07/03:31am - - - - - N 44 65 24 35 1001.9 1002.7 6.8
07/03:30am - - - - - N 46 65 25 35 1001.7 1002.4 6.8
07/03:03am - - - - - N 46 67 25 36 1001.8 1002.5 6.8
07/03:00am - - - - - NNE 50 65 27 35 1001.5 1002.2 6.8
07/02:30am - - - - - N 48 72 26 39 1001.6 1002.3 6.8
07/02:24am - - - - - NW 44 72 24 39 1001.4 1002.1 6.8
07/02:22am -1.7 -12.1 -1.8 99 0.0 WNW 43 61 23 33 1001.6 1002.3 6.8
07/02:14am -1.7 -11.7 -1.8 99 0.0 W 41 61 22 33 1001.3 1002.0 6.8
07/02:00am -2.1 -11.8 -2.2 99 -0.1 W 39 54 21 29 1001.5 1002.2 6.8
07/01:31am -0.9 -10.1 -1.0 99 0.0 WNW 37 56 20 30 1001.4 1002.1 6.8
07/01:30am -1.0 -10.2 -1.1 99 0.0 WNW 37 56 20 30 1001.3 1002.0 6.8
07/01:21am -1.0 -10.2 -1.1 99 0.0 WNW 37 57 20 31 1001.5 1002.2 6.8
07/01:00am -1.1 -10.7 -1.2 99 0.0 W 39 54 21 29 1001.9 1002.7 6.8
07/12:42am -1.0 -11.9 -1.1 99 0.0 W 46 67 25 36 1001.3 1002.0 6.8
07/12:30am -0.9 -12.9 -1.0 99 0.0 W 52 67 28 36 1001.3 1002.0 6.8
07/12:23am -0.8 -11.1 -0.9 99 0.0 W 43 65 23 35 1000.6 1001.3 6.8
07/12:08am -0.8 -9.2 -0.9 99 0.0 WNW 33 52 18 28 1001.4 1002.1 6.8
07/12:00am -0.8 -9.9 -0.9 99 0.0 WNW 37 54 20 29 1001.5 1002.2 6.8
 
Date/Time
EST
Temp
°C
App
Temp
°C
Dew
Point
Rel
Hum
%
Delta-T
°C
Wind Press
QNH
hPa
Press
MSL
hPa
Rain
since 9 am
mm
Dir
 
Spd
km/h
Gust
km/h
Spd
kts
Gust
kts
06/11:31pm -1.3 -11.8 -1.4 99 0.0 W 44 65 24 35 1001.4 1002.1 6.8
06/11:30pm -1.3 -12.2 -1.4 99 0.0 W 46 65 25 35 1001.3 1002.0 6.8
06/11:18pm -1.3 -13.0 -1.4 99 0.0 W 50 80 27 43 1001.2 1001.8 6.8
06/11:16pm -1.4 -13.5 -1.5 99 0.0 W 52 80 28 43 1000.9 1001.6 6.8
06/11:00pm -1.0 -11.5 -1.1 99 0.0 WSW 44 67 24 36 1000.6 1001.3 6.8
06/10:57pm -0.8 -11.3 -0.9 99 0.0 WSW 44 59 24 32 1001.1 1001.7 6.8
06/10:39pm -0.4 -8.7 -0.5 99 0.0 NW 33 59 18 32 1000.7 1001.4 6.8
06/10:35pm -0.3 -9.0 -0.4 99 0.0 NW 35 65 19 35 1000.8 1001.5 6.8
06/10:34pm -0.4 -9.1 -0.5 99 0.0 NW 35 65 19 35 1000.4 1001.0 6.8
06/10:31pm -0.4 -9.9 -0.5 99 0.0 WNW 39 65 21 35 1000.8 1001.5 6.8
06/10:30pm -0.5 -10.4 -0.6 99 0.0 WNW 41 65 22 35 1000.7 1001.4 6.8
06/10:00pm -0.7 -10.6 -0.8 99 0.0 WNW 41 61 22 33 1001.2 1001.8 6.8
06/09:30pm -0.7 -11.5 -0.8 99 0.0 WNW 46 82 25 44 1001.3 1002.0 6.8
06/09:00pm -1.4 -12.7 -1.5 99 0.0 W 48 67 26 36 1000.9 1001.6 6.8
06/08:54pm -1.4 -12.3 -1.5 99 0.0 W 46 67 25 36 1000.9 1001.6 6.8
06/08:50pm -1.5 -12.8 -1.6 99 0.0 W 48 63 26 34 1001.2 1001.8 6.8
06/08:32pm -1.3 -13.7 -1.4 99 0.0 WNW 54 89 29 48 1000.3 1000.9 6.8
06/08:30pm -1.0 -12.3 -1.1 99 0.0 WNW 48 76 26 41 1000.7 1001.4 6.8
06/08:00pm -0.6 -10.1 -0.7 99 0.0 WNW 39 61 21 33 1001.3 1002.0 6.8
06/07:32pm -0.5 -10.0 -0.6 99 0.0 WNW 39 57 21 31 1001.3 1002.0 6.8
06/07:30pm -0.6 -10.1 -0.7 99 0.0 WNW 39 56 21 30 1001.2 1001.8 6.8
06/07:00pm -0.7 -10.2 -0.8 99 0.0 WNW 39 67 21 36 1000.6 1001.3 6.8
06/06:30pm -0.7 -13.1 -0.8 99 0.0 W 54 76 29 41 1000.1 1000.7 6.8
06/06:00pm -0.6 -11.4 -0.7 99 0.0 W 46 69 25 37 1000.1 1000.7 6.8
06/05:30pm -0.8 -11.7 -0.9 99 0.0 W 46 67 25 36 999.6 1000.2 6.8
06/05:00pm -0.8 -12.0 -0.9 99 0.0 W 48 69 26 37 999.5 1000.1 6.8
06/04:30pm -0.8 -12.8 -0.9 99 0.0 W 52 80 28 43 999.0 999.7 6.8
06/04:00pm -0.6 -11.4 -0.7 99 0.0 WNW 46 82 25 44 998.7 999.3 6.8
06/03:30pm -0.5 -12.1 -0.6 99 0.0 WNW 50 72 27 39 998.4 999.0 6.8
06/03:00pm -0.4 -10.6 -0.5 99 0.0 W 43 61 23 33 998.0 998.6 6.8
06/02:30pm -0.3 -12.6 -0.4 99 0.0 W 54 80 29 43 998.3 998.9 6.6
06/02:00pm 0.1 -11.4 0.0 99 0.0 WNW 50 70 27 38 997.9 998.5 6.2
06/01:57pm 0.1 -11.8 0.0 99 0.0 W 52 70 28 38 997.7 998.3 6.0
06/01:52pm 0.1 -11.4 0.0 99 0.0 W 50 93 27 50 997.4 998.0 5.8
06/01:46pm 0.1 -9.3 0.0 99 0.0 WNW 39 93 21 50 997.4 998.0 5.6
06/01:30pm 0.0 -11.1 -0.1 99 0.0 WNW 48 69 26 37 997.4 998.0 5.6
06/01:05pm -0.4 -12.3 -0.5 99 0.0 WNW 52 82 28 44 997.7 998.3 5.2
06/01:00pm -0.9 -14.2 -1.0 99 0.0 W 59 91 32 49 997.8 998.4 5.0
06/12:45pm -0.1 -11.6 -0.2 99 0.0 WNW 50 96 27 52 996.7 997.3 5.0
06/12:30pm 0.7 -10.7 0.6 99 0.0 WNW 50 87 27 47 997.3 997.8 4.6
06/12:00pm 1.3 -11.3 1.2 99 0.0 W 57 83 31 45 997.0 997.6 4.4
06/11:30am 1.1 -11.4 1.0 99 0.0 W 56 78 30 42 997.0 997.6 4.2
06/11:00am 1.1 -12.3 1.0 99 0.0 WNW 61 95 33 51 997.4 998.0 3.8
06/10:30am 1.5 -10.5 1.4 99 0.0 WNW 54 96 29 52 996.7 997.3 2.6
06/10:00am 0.8 -9.4 0.7 99 0.0 WNW 44 83 24 45 997.0 997.6 2.2
06/09:51am 0.3 -13.6 0.2 99 0.0 WNW 63 109 34 59 996.6 997.2 2.0
06/09:50am 0.3 -13.6 0.2 99 0.0 WNW 63 109 34 59 996.6 997.2 2.0
06/09:44am 0.8 -11.3 0.7 99 0.0 WNW 54 109 29 59 995.7 996.2 1.8
06/09:43am 1.3 -9.6 1.2 99 0.0 WNW 48 109 26 59 996.5 997.0 1.8
06/09:41am 1.7 -8.4 1.6 99 0.0 NW 44 82 24 44 996.4 996.9 1.4
06/09:39am 1.8 -8.1 1.7 99 0.0 NW 43 83 23 45 996.4 996.9 1.4
06/09:30am 1.5 -8.1 1.4 99 0.0 NW 41 76 22 41 996.6 997.2 1.2
06/09:28am 1.4 -7.8 1.3 99 0.0 NW 39 76 21 41 996.7 997.3 1.2
06/09:00am 0.6 -11.9 0.5 99 0.0 WNW 56 91 30 49 996.4 996.9 54.4
06/08:41am 1.1 -9.9 1.0 99 0.0 NNW 48 91 26 49 995.8 996.4 53.6
06/08:38am 1.3 -10.0 1.2 99 0.0 NNW 50 93 27 50 996.1 996.7 53.2
06/08:36am 1.3 -10.8 1.2 99 0.0 NNW 54 93 29 50 996.0 996.6 53.2
06/08:30am 1.6 -11.0 1.5 99 0.0 NNW 57 93 31 50 995.4 995.9 52.6
06/08:07am 1.6 -8.9 1.5 99 0.0 NNW 46 82 25 44 995.7 996.2 51.6
06/08:00am 1.5 -8.1 1.4 99 0.0 NNW 41 61 22 33 995.9 996.5 51.4
06/07:40am 1.2 -8.4 1.1 99 0.0 NNW 41 82 22 44 995.9 996.5 50.6
06/07:30am 1.6 -6.2 1.5 99 0.0 NNW 32 56 17 30 996.5 997.0 50.2
06/07:00am 1.1 -6.8 1.0 99 0.0 NNW 32 59 17 32 996.5 997.0 49.0
06/06:59am 1.1 -6.8 1.0 99 0.0 NW 32 59 17 32 996.5 997.0 49.0
06/06:56am 1.0 -6.9 0.9 99 0.0 NW 32 59 17 32 996.6 997.2 48.8
06/06:53am 0.8 -7.2 0.7 99 0.0 NW 32 54 17 29 996.6 997.2 48.6
06/06:36am 0.1 -8.5 0.0 99 0.0 NW 35 67 19 36 996.4 996.9 48.6
06/06:30am 0.8 -6.8 0.7 99 0.0 NW 30 50 16 27 997.2 997.7 48.6
06/06:00am 1.0 -8.6 0.9 99 0.0 WNW 41 61 22 33 997.2 997.7 48.2
06/05:30am 0.7 -9.0 0.6 99 0.0 WNW 41 69 22 37 997.2 997.7 48.2
06/05:29am 0.7 -9.6 0.6 99 0.0 WNW 44 69 24 37 997.0 997.6 48.2
06/05:28am 0.8 -9.8 0.7 99 0.0 WNW 46 69 25 37 997.0 997.6 48.2
06/05:00am 0.5 -9.6 0.4 99 0.0 WNW 43 63 23 34 996.6 997.2 47.4
06/04:38am 0.7 -9.0 0.6 99 0.0 WNW 41 76 22 41 996.0 996.6 47.4
06/04:37am 0.6 -9.1 0.5 99 0.0 WNW 41 76 22 41 995.7 996.2 47.4
06/04:30am 0.8 -7.2 0.7 99 0.0 WNW 32 65 17 35 996.3 996.8 47.2
06/04:00am 0.6 -9.1 0.5 99 0.0 WNW 41 69 22 37 996.0 996.6 47.0
06/03:32am 0.7 -9.4 0.6 99 0.0 WNW 43 61 23 33 995.9 996.5 46.6
06/03:30am 0.7 -9.0 0.6 99 0.0 WNW 41 59 22 32 996.0 996.6 46.4
06/03:00am 0.0 -12.3 -0.1 99 0.0 W 54 72 29 39 996.0 996.6 46.2
06/02:45am 0.1 -10.1 0.0 99 0.0 WNW 43 80 23 43 995.5 996.0 46.2
06/02:30am 0.6 -9.5 0.5 99 0.0 W 43 57 23 31 996.0 996.6 46.0
06/02:00am 0.5 -10.5 0.4 99 0.0 W 48 72 26 39 995.6 996.1 45.2
06/01:30am 0.4 -8.9 0.3 99 0.0 W 39 59 21 32 995.6 996.1 44.4
06/01:24am 0.3 -10.4 0.2 99 0.0 W 46 63 25 34 995.6 996.1 44.4
06/01:22am 0.2 -10.5 0.1 99 0.0 W 46 63 25 34 995.6 996.1 44.2
06/01:06am 0.2 -11.6 0.1 99 0.0 WNW 52 85 28 46 994.6 995.1 44.2
06/01:00am 1.4 -8.7 1.3 99 0.0 WNW 44 72 24 39 995.0 995.6 44.0
06/12:38am 0.9 -10.5 0.8 99 0.0 W 50 76 27 41 995.1 995.7 44.0
06/12:30am 0.8 -11.3 0.7 99 0.0 WNW 54 85 29 46 994.5 995.0 43.8
06/12:26am 0.7 -9.6 0.6 99 0.0 WNW 44 85 24 46 993.8 994.3 43.6
06/12:01am 1.2 -9.0 1.1 99 0.0 W 44 65 24 35 994.0 994.5 42.8
06/12:00am 1.2 -9.0 1.1 99 0.0 W 44 65 24 35 994.0 994.5 42.8
 
Date/Time
EST
Temp
°C
App
Temp
°C
Dew
Point
Rel
Hum
%
Delta-T
°C
Wind Press
QNH
hPa
Press
MSL
hPa
Rain
since 9 am
mm
Dir
 
Spd
km/h
Gust
km/h
Spd
kts
Gust
kts
05/11:30pm 1.5 -10.5 1.4 99 0.0 WNW 54 80 29 43 993.7 994.2 42.8
05/11:00pm 1.5 -11.1 1.4 99 0.0 W 57 91 31 49 993.0 993.5 42.6
05/10:37pm 2.4 -8.7 2.3 99 0.0 WNW 50 83 27 45 992.6 993.0 40.8
05/10:36pm 2.3 -8.5 2.2 99 0.0 WNW 48 76 26 41 992.8 993.3 40.8
05/10:32pm 2.4 -9.1 2.3 99 0.0 WNW 52 89 28 48 993.2 993.7 40.8
05/10:30pm 2.4 -9.9 2.3 99 0.0 WNW 56 98 30 53 993.0 993.5 40.6
05/10:22pm 2.6 -8.9 2.5 99 0.0 WNW 52 98 28 53 992.2 992.7 39.8
05/10:21pm 2.8 -9.0 2.7 99 0.0 WNW 54 87 29 47 992.6 993.0 39.6
05/10:03pm 2.3 -8.8 2.2 99 0.0 WNW 50 83 27 45 991.9 992.3 39.2
05/10:02pm 2.5 -8.2 2.4 99 0.0 WNW 48 83 26 45 991.5 991.9 39.2
05/10:01pm 2.7 -7.6 2.6 99 0.0 WNW 46 83 25 45 991.9 992.3 39.2
05/10:00pm 2.8 -7.1 2.7 99 0.0 WNW 44 65 24 35 992.0 992.5 39.2
05/09:46pm 3.0 -7.6 2.9 99 0.0 WNW 48 69 26 37 992.0 992.5 38.0
05/09:42pm 3.0 -8.0 2.9 99 0.0 W 50 76 27 41 992.2 992.7 37.6
05/09:30pm 2.7 -10.8 2.6 99 0.0 W 63 83 34 45 991.2 991.7 36.8
05/09:00pm 3.4 -9.3 3.3 99 0.0 WNW 59 91 32 49 990.9 991.3 35.6
05/08:30pm 3.5 -9.5 3.4 99 0.0 WNW 61 98 33 53 989.7 990.1 32.4
05/08:20pm 3.3 -8.8 3.2 99 0.0 WNW 56 96 30 52 989.7 990.1 32.4
05/08:01pm 3.7 -10.0 3.6 99 0.0 WNW 65 102 35 55 989.7 990.1 30.4
05/08:00pm 3.7 -10.0 3.6 99 0.0 WNW 65 102 35 55 989.6 989.9 30.4
05/07:59pm 3.6 -10.5 3.5 99 0.0 WNW 67 102 36 55 989.3 989.7 30.4
05/07:54pm 3.7 -8.9 3.6 99 0.0 WNW 59 98 32 53 988.8 989.1 30.2
05/07:44pm 3.9 -7.3 3.8 99 0.0 W 52 85 28 46 989.0 989.4 29.6
05/07:36pm 3.9 -8.1 3.8 99 0.0 WNW 56 83 30 45 988.7 989.0 28.0
05/07:30pm 3.9 -9.4 3.8 99 0.0 WNW 63 93 34 50 988.1 988.5 27.6
05/07:08pm 4.0 -8.5 3.9 99 0.0 WNW 59 95 32 51 987.1 987.4 26.8
05/07:00pm 4.2 -7.9 4.1 99 0.0 WNW 57 96 31 52 987.4 987.8 25.6
05/06:56pm 4.2 -9.8 4.1 99 0.0 WNW 67 113 36 61 987.1 987.4 25.0
05/06:55pm 4.2 -10.2 4.1 99 0.0 WNW 69 113 37 61 987.3 987.6 24.8
05/06:30pm 4.3 -11.0 4.2 99 0.0 WNW 74 111 40 60 985.3 985.6 22.4
05/06:10pm 4.3 -7.8 4.2 99 0.0 WNW 57 100 31 54 984.5 984.8 22.0
05/06:03pm 4.6 -7.4 4.5 99 0.0 WNW 57 91 31 49 984.8 985.0 21.4
05/06:01pm 4.7 -7.1 4.6 99 0.0 WNW 56 89 30 48 984.8 985.0 21.2
05/06:00pm 4.7 -7.3 4.6 99 0.0 WNW 57 89 31 48 984.9 985.1 21.0
05/05:30pm 4.8 -8.7 4.7 99 0.0 WNW 65 117 35 63 983.3 983.5 19.2
05/05:29pm 4.9 -8.2 4.8 99 0.0 WNW 63 117 34 63 982.4 982.6 19.2
05/05:28pm 5.0 -7.7 4.9 99 0.0 WNW 61 106 33 57 982.8 983.0 19.2
05/05:19pm 4.9 -4.4 4.8 99 0.0 NW 43 85 23 46 983.2 983.4 18.6
05/05:18pm 4.8 -4.2 4.7 99 0.0 NW 41 85 22 46 983.3 983.5 18.6
05/05:15pm 4.6 -4.8 4.5 99 0.0 NW 43 78 23 42 982.9 983.1 17.8
05/05:13pm 4.6 -5.0 4.5 99 0.0 NNW 44 78 24 42 982.8 983.0 17.4
05/05:12pm 4.6 -5.0 4.5 99 0.0 NNW 44 76 24 41 982.5 982.7 17.0
05/05:00pm 4.2 -5.8 4.1 99 0.0 NNW 46 83 25 45 982.1 982.3 14.2
05/04:30pm 3.2 -8.2 3.1 99 0.0 NNW 52 95 28 51 982.0 982.2 10.6
05/04:00pm 2.3 -10.5 2.2 99 0.0 NNW 59 89 32 48 981.3 981.5 8.2
05/03:30pm 2.1 -10.8 2.0 99 0.0 NNW 59 89 32 48 981.9 982.0 6.0
05/03:15pm 2.2 -12.6 2.1 99 0.0 NNW 69 102 37 55 981.9 982.0 5.0
05/03:14pm 2.2 -12.8 2.1 99 0.0 NNW 70 122 38 66 981.8 981.9 4.8
05/03:02pm 2.1 -12.3 2.0 99 0.0 N 67 113 36 61 980.6 980.8 4.2
05/03:01pm 2.0 -12.0 1.9 99 0.0 N 65 113 35 61 980.9 981.0 4.2
05/03:00pm 2.0 -11.3 1.9 99 0.0 N 61 91 33 49 980.8 980.9 4.0
05/02:30pm 2.6 -10.2 2.5 99 0.0 NNW 59 82 32 44 982.9 983.1 3.8
05/02:23pm 2.3 -12.4 2.2 99 0.0 NNW 69 115 37 62 982.9 983.1 3.8
05/02:16pm 1.6 -11.0 1.5 99 0.0 NNW 57 115 31 62 982.4 982.6 3.6
05/02:00pm 3.2 -8.5 3.1 99 0.0 N 54 87 29 47 983.4 983.6 2.8
05/01:30pm 3.3 -9.4 3.2 99 0.0 NNW 59 89 32 48 983.9 984.1 2.4
05/01:00pm 3.3 -8.8 3.2 99 0.0 NNW 56 80 30 43 984.7 984.9 2.4
05/12:45pm 2.7 -9.7 2.6 99 0.0 NNW 57 95 31 51 984.7 984.9 2.4
05/12:30pm 3.7 -6.1 3.6 99 0.0 N 44 69 24 37 985.1 985.4 1.4
05/12:00pm 3.5 -6.3 3.4 99 0.0 NNW 44 63 24 34 986.3 986.6 1.2
05/11:30am 3.5 -6.7 3.4 99 0.0 NNW 46 70 25 38 987.0 987.3 1.2
05/11:00am 3.8 -6.3 3.7 99 0.0 NNW 46 69 25 37 987.7 988.0 1.0
05/10:30am 4.1 -5.6 4.0 99 0.0 NNW 44 69 24 37 987.4 987.8 0.6
05/10:00am 4.4 -4.3 4.3 99 0.0 N 39 61 21 33 988.5 988.8 0.2
05/09:31am 4.3 -4.8 4.2 99 0.0 NNW 41 59 22 32 989.1 989.5 0.2
05/09:30am 4.3 -5.1 4.2 99 0.0 NNW 43 59 23 32 989.1 989.5 0.2
05/09:00am 4.5 -4.9 4.4 99 0.0 NNW 43 63 23 34 989.6 989.9 20.2
05/08:30am 4.5 -7.0 4.4 99 0.0 NNW 54 83 29 45 989.7 990.1 19.8
05/08:00am 4.3 -8.5 4.3 100 0.0 NNW 61 111 33 60 988.6 988.9 18.2
05/07:56am 4.2 -7.3 4.2 100 0.0 N 54 111 29 60 989.0 989.4 16.8
05/07:30am 6.6 -4.8 6.6 100 0.0 N 56 82 30 44 988.9 989.3 13.8
05/07:00am 6.9 -4.5 6.9 100 0.0 N 56 85 30 46 989.1 989.5 13.6
05/06:30am 7.2 -4.1 7.2 100 0.0 N 56 91 30 49 989.8 990.2 13.4
05/06:00am 7.3 -3.6 7.3 100 0.0 N 54 83 29 45 991.2 991.7 12.0
05/05:30am 7.3 -3.6 7.3 100 0.0 N 54 82 29 44 991.5 991.9 10.2
05/05:00am 7.3 -4.0 7.3 100 0.0 N 56 82 30 44 992.0 992.5 8.4
05/04:30am 7.4 -2.7 7.4 100 0.0 N 50 76 27 41 993.1 993.6 7.2
05/04:02am 7.4 -2.7 7.4 100 0.0 N 50 70 27 38 993.4 993.8 4.8
05/04:00am 7.4 -3.1 7.4 100 0.0 N 52 70 28 38 993.7 994.2 4.8
05/03:30am 7.5 -3.3 7.5 100 0.0 N 54 76 29 41 995.1 995.7 4.4
05/03:00am 7.7 -3.7 7.7 100 0.0 N 57 82 31 44 996.1 996.7 3.6
05/02:30am 7.6 -4.2 7.6 100 0.0 N 59 91 32 49 997.2 997.7 2.4
05/02:03am 7.5 -3.9 7.5 100 0.0 N 57 80 31 43 998.0 998.6 1.6
05/02:00am 7.5 -4.3 7.5 100 0.0 N 59 76 32 41 998.2 998.8 1.6
05/01:30am 7.5 -3.9 7.5 100 0.0 N 57 78 31 42 999.0 999.7 1.0
05/01:00am 7.4 -3.5 7.4 100 0.0 N 54 78 29 42 999.8 1000.5 0.4
05/12:30am 7.3 -5.3 7.3 100 0.0 N 63 83 34 45 1000.7 1001.4 0.2
05/12:00am 7.1 -4.8 7.1 100 0.0 N 59 80 32 43 1001.3 1002.0 0.0
 
Date/Time
EST
Temp
°C
App
Temp
°C
Dew
Point
Rel
Hum
%
Delta-T
°C
Wind Press
QNH
hPa
Press
MSL
hPa
Rain
since 9 am
mm
Dir
 
Spd
km/h
Gust
km/h
Spd
kts
Gust
kts
04/11:30pm 6.8 -6.7 6.8 100 0.0 N 67 89 36 48 1001.2 1001.8 0.0
04/11:00pm 6.7 -7.4 6.7 100 0.0 NNE 70 95 38 51 1000.8 1001.5 0.0
04/10:30pm 6.6 -5.4 6.6 100 0.0 NNE 59 80 32 43 1001.6 1002.3 0.0
04/10:00pm 6.5 -5.9 6.4 99 0.0 NNE 61 80 33 43 1002.5 1003.2 0.0
04/09:32pm 6.5 -5.5 6.4 99 0.0 NNE 59 83 32 45 1003.0 1003.7 0.0
04/09:30pm 6.5 -5.5 6.4 99 0.0 NNE 59 72 32 39 1003.1 1003.8 0.0
04/09:00pm 5.7 -6.9 5.6 99 0.0 NNE 61 83 33 45 1003.7 1004.5 0.0
04/08:30pm 5.5 -5.8 5.4 99 0.0 NNE 54 74 29 40 1003.6 1004.4 0.0
04/08:00pm 5.4 -5.1 5.4 100 0.0 NNE 50 70 27 38 1004.5 1005.3 0.0
04/07:30pm 5.4 -5.9 5.4 100 0.0 NNE 54 76 29 41 1005.2 1006.0 0.0
04/07:10pm 5.4 -4.8 5.4 100 0.0 NNE 48 67 26 36 1005.3 1006.1 0.0
04/07:00pm 5.5 -3.7 5.5 100 0.0 NNE 43 61 23 33 1005.7 1006.5 0.0
04/06:30pm 5.5 -4.3 5.5 100 0.0 N 46 65 25 35 1005.9 1006.7 0.0
04/06:19pm 5.4 -4.0 5.4 100 0.0 NNE 44 63 24 34 1005.9 1006.7 0.0
04/06:00pm 5.6 -4.5 5.6 100 0.0 NNE 48 59 26 32 1006.2 1007.0 0.0
04/05:30pm 5.7 -4.0 5.7 100 0.0 NNE 46 59 25 32 1006.6 1007.5 0.0
04/05:00pm 5.8 -4.3 5.8 100 0.0 NNE 48 63 26 34 1007.2 1008.0 0.0
04/04:30pm 6.0 -4.0 6.0 100 0.0 NNE 48 61 26 33 1007.3 1008.1 0.0
04/04:18pm 6.0 -3.3 6.0 100 0.0 NNE 44 69 24 37 1007.0 1007.8 0.0
04/04:00pm 5.9 -2.8 5.9 100 0.0 NNE 41 54 22 29 1007.7 1008.6 0.0
04/03:30pm 6.0 -2.3 6.0 100 0.0 NNE 39 52 21 28 1007.4 1008.3 0.0
04/03:00pm 6.3 -1.6 6.3 100 0.0 NNE 37 46 20 25 1007.6 1008.5 0.0
04/02:30pm 6.0 -2.7 6.0 100 0.0 N 41 46 22 25 1008.8 1009.6 0.0
04/02:00pm 6.3 -2.3 6.3 100 0.0 N 41 50 22 27 1009.3 1010.2 0.0
04/01:30pm 6.5 0.4 6.5 100 0.0 N 28 35 15 19 1010.0 1010.9 0.0
04/01:00pm 6.1 -1.4 6.1 100 0.0 N 35 48 19 26 1010.1 1011.0 0.0
04/12:30pm 6.8 0.0 6.8 100 0.0 N 32 44 17 24 1010.6 1011.6 0.0
04/12:00pm 5.7 -1.4 5.7 100 0.0 N 32 44 17 24 1011.1 1012.0 0.0
04/11:30am 5.6 -1.7 5.6 100 0.0 N 33 46 18 25 1011.4 1012.4 0.0
04/11:00am 5.3 -1.8 5.3 100 0.0 N 32 43 17 23 1011.9 1012.8 0.0
04/10:30am 5.2 -2.0 5.2 100 0.0 N 32 43 17 23 1012.0 1013.0 0.0
04/10:00am 5.1 -2.1 5.1 100 0.0 N 32 41 17 22 1012.4 1013.4 0.0
04/09:30am 4.9 -2.3 4.9 100 0.0 N 32 39 17 21 1012.9 1013.9 0.0
04/09:00am 4.7 -1.8 4.6 99 0.0 N 28 37 15 20 1012.9 1013.9 6.6
04/08:30am 4.6 -1.6 4.5 99 0.0 N 26 33 14 18 1013.2 1014.2 6.6
04/08:00am 4.6 -1.2 4.5 99 0.0 N 24 32 13 17 1013.2 1014.2 6.4
04/07:30am 4.5 -1.7 4.4 99 0.0 N 26 33 14 18 1013.4 1014.4 6.4
04/07:00am 4.5 -2.1 4.4 99 0.0 N 28 35 15 19 1013.4 1014.4 6.4
04/06:30am 4.5 -2.4 4.4 99 0.0 N 30 37 16 20 1013.7 1014.7 6.4
04/06:00am 4.6 -2.7 4.5 99 0.0 NNW 32 41 17 22 1013.7 1014.7 6.4
04/05:30am 4.8 -1.3 4.7 99 0.0 N 26 39 14 21 1013.4 1014.4 6.2
04/05:00am 4.9 -1.9 4.9 100 0.0 N 30 39 16 21 1013.5 1014.6 6.2
04/04:30am 5.0 -1.8 5.0 100 0.0 N 30 41 16 22 1013.8 1014.8 6.2

Other Formats:

Comma delimited format used in spreadsheet applications
http://www.bom.gov.au/fwo/IDT60801/IDT60801.95952.axf

JavaScript Object Notation format (JSON) in row-major order
http://www.bom.gov.au/fwo/IDT60801/IDT60801.95952.json